Flight Track Log - Related Links

Times and Time Zones

All times are in EDT time to prevent confusion due to time zone crossing. See the GLR584 flight status page for this flight to view local times or setup timezone preferences in your user account.

Time Position Orientation Groundspeed Altitude Reporting Facility
EDT Latitude Longitude Course Direction KTS MPH feet Rate Location/Type
Wed 12:34:52 PM 49.6667 -124.7333 114° Southeast 180 207 5,600  Level Vancouver Center
Wed 12:35:52 PM 49.6500 -124.6500 107° East 200 230 6,100 250 Climbing Vancouver Center
Wed 12:36:52 PM 49.6167 -124.5500 117° Southeast 250 288 6,100  Level Vancouver Center
Wed 12:37:52 PM 49.5833 -124.4500 117° Southeast 260 299 6,100 -50 Level Vancouver Center
Wed 12:38:52 PM 49.5500 -124.3333 114° Southeast 260 299 6,000  Descending Vancouver Center
Wed 12:39:52 PM 49.5167 -124.2333 117° Southeast 260 299 6,100 50 Climbing Vancouver Center
Wed 12:40:52 PM 49.5000 -124.1333 104° East 260 299 6,100 -50 Level Vancouver Center
Wed 12:41:52 PM 49.4500 -124.0333 128° Southeast 260 299 6,000 -50 Descending Vancouver Center
Wed 12:42:52 PM 49.4333 -123.9333 104° East 260 299 6,000  Level Vancouver Center
Wed 12:43:52 PM 49.4333 -123.8167 90° East 260 299 6,000 50 Level Vancouver Center
Wed 12:44:52 PM 49.4167 -123.7000 102° East 260 299 6,100  Climbing Vancouver Center
Wed 12:45:52 PM 49.4000 -123.6000 104° East 260 299 6,000  Descending Vancouver Center
Wed 12:46:52 PM 49.3333 -123.5667 162° South 250 288 6,100 -250 Climbing Vancouver Center
Wed 12:47:52 PM 49.2833 -123.6000 204° Southwest 240 276 5,500 -850 Descending Vancouver Center
Wed 12:48:52 PM 49.2167 -123.6000 180° South 230 265 4,400 -900 Descending Vancouver Center
Wed 12:49:52 PM 49.2167 -123.5000 90° East 220 253 3,700 -800 Descending Vancouver Center
Wed 12:50:52 PM 49.2000 -123.4167 107° East 210 242 2,800 -900 Descending Vancouver Center
Wed 12:51:52 PM 49.2000 -123.3333 90° East 170 196 1,900 -800 Descending Vancouver Center
Wed 12:52:52 PM 49.2000 -123.2833 90° East 150 173 1,200 -700 Descending Vancouver Center
Wed 12:53:52 PM 49.1833 -123.2167 111° Southeast 130 150 500 -550 Descending Vancouver Center
Wed 12:54:52 PM 49.1833 -123.1833 90° East 100 115 100 -400 Descending Vancouver Center

Login

Don't have an account? Register now (free) for customized features, flight alerts, and more!